sensor_id;sensor_type;location;lat;lon;timestamp;pressure;altitude;pressure_sealevel;temperature;humidity
9523;BME280;63165;43.016;25.784;2023-01-29T00:02:09;100339.84;;;3.49;95.91
9523;BME280;63165;43.016;25.784;2023-01-29T00:04:38;100344.22;;;3.52;95.77
9523;BME280;63165;43.016;25.784;2023-01-29T00:07:05;100348.53;;;3.53;95.61
9523;BME280;63165;43.016;25.784;2023-01-29T00:09:33;100347.66;;;3.53;95.43
9523;BME280;63165;43.016;25.784;2023-01-29T00:12:00;100340.75;;;3.50;95.70
9523;BME280;63165;43.016;25.784;2023-01-29T00:14:28;100341.59;;;3.50;95.71
9523;BME280;63165;43.016;25.784;2023-01-29T00:16:55;100344.19;;;3.50;95.08
9523;BME280;63165;43.016;25.784;2023-01-29T00:19:22;100335.56;;;3.50;95.68
9523;BME280;63165;43.016;25.784;2023-01-29T00:21:51;100344.19;;;3.50;95.39
9523;BME280;63165;43.016;25.784;2023-01-29T00:24:19;100344.19;;;3.50;95.48
9523;BME280;63165;43.016;25.784;2023-01-29T00:26:46;100346.78;;;3.50;95.57
9523;BME280;63165;43.016;25.784;2023-01-29T00:29:14;100349.34;;;3.49;95.97
9523;BME280;63165;43.016;25.784;2023-01-29T00:31:43;100355.38;;;3.49;95.51
9523;BME280;63165;43.016;25.784;2023-01-29T00:34:11;100349.34;;;3.49;95.80
9523;BME280;63165;43.016;25.784;2023-01-29T00:36:38;100345.81;;;3.45;95.89
9523;BME280;63165;43.016;25.784;2023-01-29T00:39:07;100352.78;;;3.48;95.92
9523;BME280;63165;43.016;25.784;2023-01-29T00:41:36;100347.63;;;3.48;95.98
9523;BME280;63165;43.016;25.784;2023-01-29T00:44:20;100360.53;;;3.48;95.58
9523;BME280;63165;43.016;25.784;2023-01-29T00:47:06;100350.16;;;3.46;95.89
9523;BME280;63165;43.016;25.784;2023-01-29T00:49:54;100350.09;;;3.43;95.74
9523;BME280;63165;43.016;25.784;2023-01-29T00:52:22;100354.41;;;3.43;96.00
9523;BME280;63165;43.016;25.784;2023-01-29T00:54:55;100359.59;;;3.43;96.09
9523;BME280;63165;43.016;25.784;2023-01-29T00:57:23;100346.66;;;3.43;96.04
9523;BME280;63165;43.016;25.784;2023-01-29T00:59:51;100352.66;;;3.42;96.04
9523;BME280;63165;43.016;25.784;2023-01-29T01:02:19;100352.66;;;3.42;96.32
9523;BME280;63165;43.016;25.784;2023-01-29T01:05:05;100356.97;;;3.41;95.94
9523;BME280;63165;43.016;25.784;2023-01-29T01:07:34;100358.66;;;3.39;96.25
9523;BME280;63165;43.016;25.784;2023-01-29T01:10:04;100352.63;;;3.40;96.13
9523;BME280;63165;43.016;25.784;2023-01-29T01:12:46;100358.72;;;3.42;95.59
9523;BME280;63165;43.016;25.784;2023-01-29T01:15:13;100352.66;;;3.42;96.19
9523;BME280;63165;43.016;25.784;2023-01-29T01:17:40;100353.56;;;3.44;96.13
9523;BME280;63165;43.016;25.784;2023-01-29T01:20:09;100357.88;;;3.43;95.89
9523;BME280;63165;43.016;25.784;2023-01-29T01:22:37;100357.88;;;3.43;96.07
9523;BME280;63165;43.016;25.784;2023-01-29T01:25:07;100363.91;;;3.42;95.81
9523;BME280;63165;43.016;25.784;2023-01-29T01:27:34;100358.72;;;3.44;95.90
9523;BME280;63165;43.016;25.784;2023-01-29T01:30:08;100358.69;;;3.41;95.58
9523;BME280;63165;43.016;25.784;2023-01-29T01:32:35;100362.13;;;3.41;95.17
9523;BME280;63165;43.016;25.784;2023-01-29T01:35:03;100374.19;;;3.39;95.10
9523;BME280;63165;43.016;25.784;2023-01-29T01:37:30;100359.50;;;3.38;94.77
9523;BME280;63165;43.016;25.784;2023-01-29T01:39:58;100363.72;;;3.35;94.79
9523;BME280;63165;43.016;25.784;2023-01-29T01:42:29;100364.59;;;3.34;94.75
9523;BME280;63165;43.016;25.784;2023-01-29T01:44:58;100368.00;;;3.33;94.56
9523;BME280;63165;43.016;25.784;2023-01-29T01:47:33;100371.41;;;3.28;94.67
9523;BME280;63165;43.016;25.784;2023-01-29T01:50:06;100375.75;;;3.29;94.81
9523;BME280;63165;43.016;25.784;2023-01-29T01:52:38;100376.59;;;3.30;94.78
9523;BME280;63165;43.016;25.784;2023-01-29T01:55:08;100367.94;;;3.28;94.81
9523;BME280;63165;43.016;25.784;2023-01-29T01:57:41;100370.50;;;3.26;94.53
9523;BME280;63165;43.016;25.784;2023-01-29T02:00:12;100370.50;;;3.26;94.87
9523;BME280;63165;43.016;25.784;2023-01-29T02:02:41;100365.34;;;3.28;95.22
9523;BME280;63165;43.016;25.784;2023-01-29T02:05:28;100364.50;;;3.27;95.28
9523;BME280;63165;43.016;25.784;2023-01-29T02:08:14;100369.66;;;3.27;95.42
9523;BME280;63165;43.016;25.784;2023-01-29T02:11:02;100376.63;;;3.32;95.68
9523;BME280;63165;43.016;25.784;2023-01-29T02:13:31;100363.66;;;3.30;95.63
9523;BME280;63165;43.016;25.784;2023-01-29T02:15:59;100363.66;;;3.30;96.08
9523;BME280;63165;43.016;25.784;2023-01-29T02:18:26;100356.78;;;3.30;95.85
9523;BME280;63165;43.016;25.784;2023-01-29T02:21:30;100359.34;;;3.30;95.81
9523;BME280;63165;43.016;25.784;2023-01-29T02:24:27;100366.25;;;3.30;95.62
9523;BME280;63165;43.016;25.784;2023-01-29T02:27:06;100366.25;;;3.30;95.82
9523;BME280;63165;43.016;25.784;2023-01-29T02:29:43;100369.66;;;3.29;95.67
9523;BME280;63165;43.016;25.784;2023-01-29T02:32:21;100374.84;;;3.29;95.47
9523;BME280;63165;43.016;25.784;2023-01-29T02:35:03;100376.63;;;3.32;95.43
9523;BME280;63165;43.016;25.784;2023-01-29T02:37:56;100375.75;;;3.29;95.07
9523;BME280;63165;43.016;25.784;2023-01-29T02:40:28;100380.03;;;3.30;95.22
9523;BME280;63165;43.016;25.784;2023-01-29T02:43:03;100381.75;;;3.28;95.00
9523;BME280;63165;43.016;25.784;2023-01-29T02:45:41;100372.25;;;3.27;95.19
9523;BME280;63165;43.016;25.784;2023-01-29T02:48:16;100373.91;;;3.25;94.88
9523;BME280;63165;43.016;25.784;2023-01-29T02:50:44;100379.09;;;3.25;94.81
9523;BME280;63165;43.016;25.784;2023-01-29T02:53:17;100376.50;;;3.24;94.42
9523;BME280;63165;43.016;25.784;2023-01-29T02:55:50;100372.97;;;3.20;94.72
9523;BME280;63165;43.016;25.784;2023-01-29T02:58:24;100375.53;;;3.19;94.86
9523;BME280;63165;43.016;25.784;2023-01-29T03:00:59;100380.69;;;3.19;94.98
9523;BME280;63165;43.016;25.784;2023-01-29T03:03:32;100375.53;;;3.19;94.88
9523;BME280;63165;43.016;25.784;2023-01-29T03:06:02;100373.78;;;3.18;94.95
9523;BME280;63165;43.016;25.784;2023-01-29T03:08:37;100381.53;;;3.16;94.89
9523;BME280;63165;43.016;25.784;2023-01-29T03:11:11;100392.66;;;3.14;94.58
9523;BME280;63165;43.016;25.784;2023-01-29T03:13:43;100396.06;;;3.11;94.65
9523;BME280;63165;43.016;25.784;2023-01-29T03:16:19;100399.47;;;3.10;94.74
9523;BME280;63165;43.016;25.784;2023-01-29T03:18:55;100392.56;;;3.07;94.93
9523;BME280;63165;43.016;25.784;2023-01-29T03:21:28;100399.34;;;3.02;94.46
9523;BME280;63165;43.016;25.784;2023-01-29T03:24:16;100396.69;;;2.99;94.88
9523;BME280;63165;43.016;25.784;2023-01-29T03:27:04;100394.09;;;2.98;95.66
9523;BME280;63165;43.016;25.784;2023-01-29T03:29:53;100394.94;;;2.97;95.79
9523;BME280;63165;43.016;25.784;2023-01-29T03:32:41;100389.75;;;2.97;95.81
9523;BME280;63165;43.016;25.784;2023-01-29T03:35:13;100394.94;;;2.97;95.75
9523;BME280;63165;43.016;25.784;2023-01-29T03:37:59;100398.38;;;2.97;96.09
9523;BME280;63165;43.016;25.784;2023-01-29T03:40:28;100398.41;;;2.99;96.18
9523;BME280;63165;43.016;25.784;2023-01-29T03:43:05;100397.59;;;3.00;96.48
9523;BME280;63165;43.016;25.784;2023-01-29T03:45:53;100397.63;;;3.03;96.63
9523;BME280;63165;43.016;25.784;2023-01-29T03:48:30;100399.44;;;3.07;96.42
9523;BME280;63165;43.016;25.784;2023-01-29T03:51:09;100405.50;;;3.09;96.76
9523;BME280;63165;43.016;25.784;2023-01-29T03:53:42;100399.53;;;3.11;96.70
9523;BME280;63165;43.016;25.784;2023-01-29T03:56:19;100397.88;;;3.15;96.36
9523;BME280;63165;43.016;25.784;2023-01-29T03:58:52;100391.81;;;3.13;96.17
9523;BME280;63165;43.016;25.784;2023-01-29T04:01:24;100390.97;;;3.16;96.37
9523;BME280;63165;43.016;25.784;2023-01-29T04:03:58;100400.47;;;3.15;96.34
9523;BME280;63165;43.016;25.784;2023-01-29T04:06:31;100403.88;;;3.14;95.83
9523;BME280;63165;43.016;25.784;2023-01-29T04:09:03;100407.38;;;3.16;96.29
9523;BME280;63165;43.016;25.784;2023-01-29T04:11:35;100397.88;;;3.15;96.25
9523;BME280;63165;43.016;25.784;2023-01-29T04:14:06;100397.91;;;3.17;96.22
9523;BME280;63165;43.016;25.784;2023-01-29T04:16:37;100409.97;;;3.16;96.23
9523;BME280;63165;43.016;25.784;2023-01-29T04:19:07;100404.81;;;3.18;96.16
9523;BME280;63165;43.016;25.784;2023-01-29T04:21:35;100414.34;;;3.20;95.88
9523;BME280;63165;43.016;25.784;2023-01-29T04:24:04;100407.41;;;3.19;96.10
9523;BME280;63165;43.016;25.784;2023-01-29T04:26:55;100402.22;;;3.18;96.62
9523;BME280;63165;43.016;25.784;2023-01-29T04:29:37;100403.94;;;3.17;96.55
9523;BME280;63165;43.016;25.784;2023-01-29T04:32:10;100413.44;;;3.20;96.33
9523;BME280;63165;43.016;25.784;2023-01-29T04:34:53;100414.28;;;3.17;96.26
9523;BME280;63165;43.016;25.784;2023-01-29T04:37:34;100415.22;;;3.21;96.16
9523;BME280;63165;43.016;25.784;2023-01-29T04:40:12;100413.50;;;3.21;96.21
9523;BME280;63165;43.016;25.784;2023-01-29T04:42:47;100411.75;;;3.20;96.65
9523;BME280;63165;43.016;25.784;2023-01-29T04:45:20;100419.53;;;3.20;96.64
9523;BME280;63165;43.016;25.784;2023-01-29T04:48:06;100418.63;;;3.18;96.57
9523;BME280;63165;43.016;25.784;2023-01-29T04:50:47;100413.41;;;3.17;96.40
9523;BME280;63165;43.016;25.784;2023-01-29T04:53:18;100416.88;;;3.17;96.66
9523;BME280;63165;43.016;25.784;2023-01-29T04:55:51;100420.25;;;3.13;96.42
9523;BME280;63165;43.016;25.784;2023-01-29T04:58:25;100428.81;;;3.12;96.78
9523;BME280;63165;43.016;25.784;2023-01-29T05:00:56;100419.38;;;3.13;96.62
9523;BME280;63165;43.016;25.784;2023-01-29T05:03:25;100433.16;;;3.13;96.83
9523;BME280;63165;43.016;25.784;2023-01-29T05:05:56;100428.84;;;3.14;97.03
9523;BME280;63165;43.016;25.784;2023-01-29T05:08:27;100433.28;;;3.19;96.42
9523;BME280;63165;43.016;25.784;2023-01-29T05:10:59;100430.72;;;3.21;96.42
9523;BME280;63165;43.016;25.784;2023-01-29T05:13:27;100427.28;;;3.20;96.56
9523;BME280;63165;43.016;25.784;2023-01-29T05:16:03;100432.50;;;3.23;96.59
9523;BME280;63165;43.016;25.784;2023-01-29T05:18:32;100429.91;;;3.23;96.52
9523;BME280;63165;43.016;25.784;2023-01-29T05:21:04;100434.19;;;3.21;96.32
9523;BME280;63165;43.016;25.784;2023-01-29T05:23:32;100443.69;;;3.22;96.13
9523;BME280;63165;43.016;25.784;2023-01-29T05:25:59;100441.09;;;3.22;95.92
9523;BME280;63165;43.016;25.784;2023-01-29T05:28:27;100447.06;;;3.20;95.93
9523;BME280;63165;43.016;25.784;2023-01-29T05:30:54;100442.75;;;3.19;96.19
9523;BME280;63165;43.016;25.784;2023-01-29T05:33:25;100447.84;;;3.16;96.09
9523;BME280;63165;43.016;25.784;2023-01-29T05:35:52;100453.03;;;3.16;95.79
9523;BME280;63165;43.016;25.784;2023-01-29T05:38:21;100448.72;;;3.15;96.09
9523;BME280;63165;43.016;25.784;2023-01-29T05:40:49;100455.56;;;3.14;96.74
9523;BME280;63165;43.016;25.784;2023-01-29T05:43:18;100457.31;;;3.14;97.04
9523;BME280;63165;43.016;25.784;2023-01-29T05:45:51;100464.19;;;3.13;96.78
9523;BME280;63165;43.016;25.784;2023-01-29T05:48:18;100462.59;;;3.18;96.57
9523;BME280;63165;43.016;25.784;2023-01-29T05:50:46;100476.41;;;3.20;96.47
9523;BME280;63165;43.016;25.784;2023-01-29T05:53:13;100481.50;;;3.17;96.64
9523;BME280;63165;43.016;25.784;2023-01-29T05:55:44;100487.53;;;3.16;96.77
9523;BME280;63165;43.016;25.784;2023-01-29T05:58:12;100478.88;;;3.16;96.73
9523;BME280;63165;43.016;25.784;2023-01-29T06:00:40;100479.78;;;3.16;96.38
9523;BME280;63165;43.016;25.784;2023-01-29T06:03:07;100482.31;;;3.15;96.53
9523;BME280;63165;43.016;25.784;2023-01-29T06:05:36;100483.19;;;3.15;96.86
9523;BME280;63165;43.016;25.784;2023-01-29T06:08:05;100492.72;;;3.18;96.39
9523;BME280;63165;43.016;25.784;2023-01-29T06:10:32;100491.84;;;3.17;96.63
9523;BME280;63165;43.016;25.784;2023-01-29T06:13:01;100496.13;;;3.15;96.56
9523;BME280;63165;43.016;25.784;2023-01-29T06:15:29;100484.94;;;3.18;96.86
9523;BME280;63165;43.016;25.784;2023-01-29T06:17:56;100492.75;;;3.19;96.97
9523;BME280;63165;43.016;25.784;2023-01-29T06:20:24;100495.34;;;3.19;96.99
9523;BME280;63165;43.016;25.784;2023-01-29T06:22:51;100501.38;;;3.18;96.48
9523;BME280;63165;43.016;25.784;2023-01-29T06:25:18;100515.16;;;3.19;96.75
9523;BME280;63165;43.016;25.784;2023-01-29T06:27:45;100518.66;;;3.21;97.02
9523;BME280;63165;43.016;25.784;2023-01-29T06:30:18;100515.22;;;3.23;96.76
9523;BME280;63165;43.016;25.784;2023-01-29T06:32:45;100523.00;;;3.22;96.91
9523;BME280;63165;43.016;25.784;2023-01-29T06:35:14;100521.25;;;3.22;96.91
9523;BME280;63165;43.016;25.784;2023-01-29T06:37:41;100532.41;;;3.20;96.82
9523;BME280;63165;43.016;25.784;2023-01-29T06:40:10;100516.88;;;3.20;96.51
9523;BME280;63165;43.016;25.784;2023-01-29T06:42:38;100529.81;;;3.20;96.42
9523;BME280;63165;43.016;25.784;2023-01-29T06:45:08;100534.16;;;3.21;96.50
9523;BME280;63165;43.016;25.784;2023-01-29T06:47:37;100541.06;;;3.20;96.72
9523;BME280;63165;43.016;25.784;2023-01-29T06:50:05;100543.69;;;3.22;96.58
9523;BME280;63165;43.016;25.784;2023-01-29T06:52:32;100540.31;;;3.26;96.88
9523;BME280;63165;43.016;25.784;2023-01-29T06:54:59;100536.81;;;3.25;96.58
9523;BME280;63165;43.016;25.784;2023-01-29T06:57:28;100546.34;;;3.26;96.83
9523;BME280;63165;43.016;25.784;2023-01-29T06:59:55;100549.75;;;3.25;96.32
9523;BME280;63165;43.016;25.784;2023-01-29T07:02:23;100550.63;;;3.24;96.96
9523;BME280;63165;43.016;25.784;2023-01-29T07:04:52;100548.81;;;3.20;96.78
9523;BME280;63165;43.016;25.784;2023-01-29T07:07:19;100557.50;;;3.25;96.95
9523;BME280;63165;43.016;25.784;2023-01-29T07:09:46;100557.50;;;3.24;97.42
9523;BME280;63165;43.016;25.784;2023-01-29T07:12:14;100554.91;;;3.24;97.48
9523;BME280;63165;43.016;25.784;2023-01-29T07:14:41;100557.50;;;3.24;97.25
9523;BME280;63165;43.016;25.784;2023-01-29T07:17:08;100556.66;;;3.25;97.16
9523;BME280;63165;43.016;25.784;2023-01-29T07:19:35;100568.75;;;3.26;97.47
9523;BME280;63165;43.016;25.784;2023-01-29T07:22:04;100560.09;;;3.24;97.08
9523;BME280;63165;43.016;25.784;2023-01-29T07:24:31;100564.38;;;3.23;97.60
9523;BME280;63165;43.016;25.784;2023-01-29T07:26:59;100568.63;;;3.21;97.28
9523;BME280;63165;43.016;25.784;2023-01-29T07:29:26;100566.00;;;3.20;97.17
9523;BME280;63165;43.016;25.784;2023-01-29T07:31:53;100560.06;;;3.22;97.77
9523;BME280;63165;43.016;25.784;2023-01-29T07:34:20;100568.72;;;3.24;97.81
9523;BME280;63165;43.016;25.784;2023-01-29T07:36:48;100565.22;;;3.22;98.15
9523;BME280;63165;43.016;25.784;2023-01-29T07:39:17;100571.19;;;3.20;97.84
9523;BME280;63165;43.016;25.784;2023-01-29T07:41:44;100572.06;;;3.20;98.30
9523;BME280;63165;43.016;25.784;2023-01-29T07:44:11;100575.53;;;3.21;98.03
9523;BME280;63165;43.016;25.784;2023-01-29T07:46:38;100568.63;;;3.21;98.26
9523;BME280;63165;43.016;25.784;2023-01-29T07:49:06;100570.41;;;3.22;98.28
9523;BME280;63165;43.016;25.784;2023-01-29T07:51:34;100581.56;;;3.21;98.12
9523;BME280;63165;43.016;25.784;2023-01-29T07:54:01;100584.16;;;3.21;98.46
9523;BME280;63165;43.016;25.784;2023-01-29T07:56:30;100582.44;;;3.20;98.14
9523;BME280;63165;43.016;25.784;2023-01-29T07:58:57;100582.47;;;3.23;97.93
9523;BME280;63165;43.016;25.784;2023-01-29T08:01:24;100585.97;;;3.25;98.22
9523;BME280;63165;43.016;25.784;2023-01-29T08:03:51;100592.06;;;3.27;97.94
9523;BME280;63165;43.016;25.784;2023-01-29T08:06:19;100598.16;;;3.29;98.29
9523;BME280;63165;43.016;25.784;2023-01-29T08:08:46;100599.03;;;3.32;98.66
9523;BME280;63165;43.016;25.784;2023-01-29T08:11:13;100599.03;;;3.32;98.34
9523;BME280;63165;43.016;25.784;2023-01-29T08:13:42;100607.72;;;3.34;98.40
9523;BME280;63165;43.016;25.784;2023-01-29T08:16:11;100607.63;;;3.30;98.47
9523;BME280;63165;43.016;25.784;2023-01-29T08:18:38;100607.59;;;3.27;97.98
9523;BME280;63165;43.016;25.784;2023-01-29T08:21:08;100602.34;;;3.24;97.82
9523;BME280;63165;43.016;25.784;2023-01-29T08:23:36;100612.75;;;3.27;98.39
9523;BME280;63165;43.016;25.784;2023-01-29T08:26:03;100613.56;;;3.26;98.28
9523;BME280;63165;43.016;25.784;2023-01-29T08:28:31;100607.59;;;3.27;98.41
9523;BME280;63165;43.016;25.784;2023-01-29T08:31:00;100613.63;;;3.28;98.18
9523;BME280;63165;43.016;25.784;2023-01-29T08:33:28;100624.00;;;3.31;98.84
9523;BME280;63165;43.016;25.784;2023-01-29T08:35:55;100616.28;;;3.33;98.90
9523;BME280;63165;43.016;25.784;2023-01-29T08:38:22;100618.97;;;3.36;99.42
9523;BME280;63165;43.016;25.784;2023-01-29T08:40:49;100622.47;;;3.39;99.24
9523;BME280;63165;43.016;25.784;2023-01-29T08:43:17;100628.47;;;3.38;99.12
9523;BME280;63165;43.016;25.784;2023-01-29T08:45:44;100625.16;;;3.42;99.00
9523;BME280;63165;43.016;25.784;2023-01-29T08:48:13;100621.66;;;3.42;99.16
9523;BME280;63165;43.016;25.784;2023-01-29T08:50:40;100627.75;;;3.42;98.95
9523;BME280;63165;43.016;25.784;2023-01-29T08:53:08;100627.75;;;3.42;99.12
9523;BME280;63165;43.016;25.784;2023-01-29T08:55:37;100628.59;;;3.43;99.15
9523;BME280;63165;43.016;25.784;2023-01-29T08:58:05;100629.50;;;3.45;99.60
9523;BME280;63165;43.016;25.784;2023-01-29T09:00:33;100633.84;;;3.47;99.41
9523;BME280;63165;43.016;25.784;2023-01-29T09:03:01;100627.00;;;3.48;99.54
9523;BME280;63165;43.016;25.784;2023-01-29T09:05:30;100626.09;;;3.47;99.47
9523;BME280;63165;43.016;25.784;2023-01-29T09:07:57;100633.03;;;3.48;99.60
9523;BME280;63165;43.016;25.784;2023-01-29T09:10:25;100635.69;;;3.53;99.77
9523;BME280;63165;43.016;25.784;2023-01-29T09:12:53;100624.53;;;3.54;99.96
9523;BME280;63165;43.016;25.784;2023-01-29T09:15:20;100620.34;;;3.61;99.22
9523;BME280;63165;43.016;25.784;2023-01-29T09:17:48;100624.59;;;3.59;99.39
9523;BME280;63165;43.016;25.784;2023-01-29T09:20:16;100629.78;;;3.59;99.52
9523;BME280;63165;43.016;25.784;2023-01-29T09:22:47;100619.56;;;3.63;99.68
9523;BME280;63165;43.016;25.784;2023-01-29T09:25:18;100617.91;;;3.67;99.50
9523;BME280;63165;43.016;25.784;2023-01-29T09:27:45;100616.19;;;3.67;99.70
9523;BME280;63165;43.016;25.784;2023-01-29T09:30:13;100618.75;;;3.67;99.54
9523;BME280;63165;43.016;25.784;2023-01-29T09:32:43;100612.75;;;3.68;98.94
9523;BME280;63165;43.016;25.784;2023-01-29T09:35:11;100616.25;;;3.72;98.91
9523;BME280;63165;43.016;25.784;2023-01-29T09:37:38;100622.38;;;3.74;99.05
9523;BME280;63165;43.016;25.784;2023-01-29T09:40:17;100620.63;;;3.75;98.99
9523;BME280;63165;43.016;25.784;2023-01-29T09:42:54;100609.41;;;3.74;99.05
9523;BME280;63165;43.016;25.784;2023-01-29T09:45:26;100610.31;;;3.76;98.68
9523;BME280;63165;43.016;25.784;2023-01-29T09:48:12;100610.31;;;3.76;98.74
9523;BME280;63165;43.016;25.784;2023-01-29T09:50:41;100605.22;;;3.81;98.54
9523;BME280;63165;43.016;25.784;2023-01-29T09:53:15;100594.94;;;3.84;98.29
9523;BME280;63165;43.016;25.784;2023-01-29T09:55:49;100600.16;;;3.87;98.23
9523;BME280;63165;43.016;25.784;2023-01-29T09:58:26;100602.75;;;3.87;98.32
9523;BME280;63165;43.016;25.784;2023-01-29T10:01:00;100608.84;;;3.89;98.39
9523;BME280;63165;43.016;25.784;2023-01-29T10:03:44;100605.47;;;3.93;98.56
9523;BME280;63165;43.016;25.784;2023-01-29T10:06:22;100590.00;;;3.98;98.19
9523;BME280;63165;43.016;25.784;2023-01-29T10:09:22;100591.75;;;3.97;97.88
9523;BME280;63165;43.016;25.784;2023-01-29T10:11:58;100594.28;;;3.96;97.75
9523;BME280;63165;43.016;25.784;2023-01-29T10:14:33;100598.66;;;3.98;97.71
9523;BME280;63165;43.016;25.784;2023-01-29T10:17:15;100599.50;;;3.97;97.64
9523;BME280;63165;43.016;25.784;2023-01-29T10:20:18;100593.47;;;3.98;98.35
9523;BME280;63165;43.016;25.784;2023-01-29T10:23:00;100581.34;;;3.96;97.51
9523;BME280;63165;43.016;25.784;2023-01-29T10:25:31;100586.34;;;3.86;96.83
9523;BME280;63165;43.016;25.784;2023-01-29T10:28:01;100592.31;;;3.82;97.21
9523;BME280;63165;43.016;25.784;2023-01-29T10:30:32;100587.94;;;3.78;97.46
9523;BME280;63165;43.016;25.784;2023-01-29T10:33:02;100580.00;;;3.71;97.59
9523;BME280;63165;43.016;25.784;2023-01-29T10:35:32;100589.50;;;3.72;98.10
9523;BME280;63165;43.016;25.784;2023-01-29T10:38:17;100579.22;;;3.75;98.08
9523;BME280;63165;43.016;25.784;2023-01-29T10:40:50;100572.38;;;3.77;98.23
9523;BME280;63165;43.016;25.784;2023-01-29T10:43:28;100565.47;;;3.77;98.22
9523;BME280;63165;43.016;25.784;2023-01-29T10:46:07;100569.81;;;3.78;98.46
9523;BME280;63165;43.016;25.784;2023-01-29T10:48:44;100562.91;;;3.79;98.30
9523;BME280;63165;43.016;25.784;2023-01-29T10:51:32;100561.22;;;3.81;98.35
9523;BME280;63165;43.016;25.784;2023-01-29T10:54:16;100558.69;;;3.84;98.52
9523;BME280;63165;43.016;25.784;2023-01-29T10:56:57;100547.53;;;3.86;98.45
9523;BME280;63165;43.016;25.784;2023-01-29T10:59:48;100544.97;;;3.88;98.88
9523;BME280;63165;43.016;25.784;2023-01-29T11:02:19;100542.44;;;3.91;98.50
9523;BME280;63165;43.016;25.784;2023-01-29T11:04:47;100545.03;;;3.91;98.70
9523;BME280;63165;43.016;25.784;2023-01-29T11:07:17;100532.06;;;3.89;98.94
9523;BME280;63165;43.016;25.784;2023-01-29T11:09:50;100543.38;;;3.96;98.33
9523;BME280;63165;43.016;25.784;2023-01-29T11:12:23;100529.63;;;3.99;98.26
9523;BME280;63165;43.016;25.784;2023-01-29T11:15:00;100534.00;;;4.01;97.75
9523;BME280;63165;43.016;25.784;2023-01-29T11:17:31;100523.63;;;4.01;97.79
9523;BME280;63165;43.016;25.784;2023-01-29T11:19:58;100527.97;;;4.02;97.93
9523;BME280;63165;43.016;25.784;2023-01-29T11:22:27;100518.53;;;4.04;97.43
9523;BME280;63165;43.016;25.784;2023-01-29T11:25:09;100528.91;;;4.06;97.09
9523;BME280;63165;43.016;25.784;2023-01-29T11:27:43;100523.72;;;4.07;97.25
9523;BME280;63165;43.016;25.784;2023-01-29T11:30:29;100520.31;;;4.08;97.40
9523;BME280;63165;43.016;25.784;2023-01-29T11:33:05;100516.03;;;4.11;96.91
9523;BME280;63165;43.016;25.784;2023-01-29T11:35:34;100517.72;;;4.08;96.41
9523;BME280;63165;43.016;25.784;2023-01-29T11:38:15;100510.75;;;4.04;96.21
9523;BME280;63165;43.016;25.784;2023-01-29T11:40:44;100517.63;;;4.02;96.30
9523;BME280;63165;43.016;25.784;2023-01-29T11:43:22;100511.53;;;4.00;96.29
9523;BME280;63165;43.016;25.784;2023-01-29T11:45:57;100503.78;;;4.02;96.35
9523;BME280;63165;43.016;25.784;2023-01-29T11:48:30;100505.47;;;4.00;96.45
9523;BME280;63165;43.016;25.784;2023-01-29T11:51:00;100509.00;;;4.03;97.23
9523;BME280;63165;43.016;25.784;2023-01-29T11:53:39;100502.13;;;4.05;97.22
9523;BME280;63165;43.016;25.784;2023-01-29T11:56:17;100503.00;;;4.07;97.10
9523;BME280;63165;43.016;25.784;2023-01-29T11:58:47;100499.66;;;4.12;97.09
9523;BME280;63165;43.016;25.784;2023-01-29T12:01:26;100507.47;;;4.15;97.33
9523;BME280;63165;43.016;25.784;2023-01-29T12:03:56;100498.88;;;4.17;96.76
9523;BME280;63165;43.016;25.784;2023-01-29T12:06:27;100502.31;;;4.16;96.66
9523;BME280;63165;43.016;25.784;2023-01-29T12:09:00;100499.69;;;4.15;96.68
9523;BME280;63165;43.016;25.784;2023-01-29T12:11:29;100498.84;;;4.16;96.85
9523;BME280;63165;43.016;25.784;2023-01-29T12:13:57;100497.09;;;4.15;96.66
9523;BME280;63165;43.016;25.784;2023-01-29T12:16:29;100491.88;;;4.13;96.07
9523;BME280;63165;43.016;25.784;2023-01-29T12:19:08;100489.28;;;4.12;96.23
9523;BME280;63165;43.016;25.784;2023-01-29T12:21:43;100488.41;;;4.11;96.29
9523;BME280;63165;43.016;25.784;2023-01-29T12:24:23;100497.06;;;4.12;96.79
9523;BME280;63165;43.016;25.784;2023-01-29T12:26:57;100498.72;;;4.09;96.32
9523;BME280;63165;43.016;25.784;2023-01-29T12:29:33;100498.66;;;4.05;96.54
9523;BME280;63165;43.016;25.784;2023-01-29T12:32:13;100510.72;;;4.03;96.72
9523;BME280;63165;43.016;25.784;2023-01-29T12:34:49;100514.13;;;4.02;96.56
9523;BME280;63165;43.016;25.784;2023-01-29T12:37:21;100509.72;;;3.95;96.45
9523;BME280;63165;43.016;25.784;2023-01-29T12:39:53;100501.06;;;3.94;96.61
9523;BME280;63165;43.016;25.784;2023-01-29T12:42:21;100510.50;;;3.91;96.91
9523;BME280;63165;43.016;25.784;2023-01-29T12:44:52;100502.63;;;3.84;96.99
9523;BME280;63165;43.016;25.784;2023-01-29T12:47:25;100504.38;;;3.85;96.90
9523;BME280;63165;43.016;25.784;2023-01-29T12:49:56;100506.06;;;3.85;96.73
9523;BME280;63165;43.016;25.784;2023-01-29T12:52:36;100503.56;;;3.88;96.69
9523;BME280;63165;43.016;25.784;2023-01-29T12:55:11;100513.91;;;3.88;96.31
9523;BME280;63165;43.016;25.784;2023-01-29T12:57:47;100516.47;;;3.86;96.96
9523;BME280;63165;43.016;25.784;2023-01-29T13:00:19;100515.56;;;3.84;96.81
9523;BME280;63165;43.016;25.784;2023-01-29T13:02:53;100518.97;;;3.83;97.40
9523;BME280;63165;43.016;25.784;2023-01-29T13:05:23;100526.78;;;3.85;97.31
9523;BME280;63165;43.016;25.784;2023-01-29T13:07:57;100524.25;;;3.88;97.46
9523;BME280;63165;43.016;25.784;2023-01-29T13:10:28;100529.44;;;3.88;97.44
9523;BME280;63165;43.016;25.784;2023-01-29T13:13:03;100521.63;;;3.86;98.23
9523;BME280;63165;43.016;25.784;2023-01-29T13:15:34;100523.41;;;3.87;98.78
9523;BME280;63165;43.016;25.784;2023-01-29T13:18:22;100526.91;;;3.93;98.54
9523;BME280;63165;43.016;25.784;2023-01-29T13:20:55;100514.91;;;3.96;98.52
9523;BME280;63165;43.016;25.784;2023-01-29T13:23:29;100515.78;;;3.97;98.31
9523;BME280;63165;43.016;25.784;2023-01-29T13:25:58;100516.66;;;3.97;98.54
9523;BME280;63165;43.016;25.784;2023-01-29T13:28:27;100515.75;;;3.95;98.74